Time,TemperatureF,DewpointF,PressureIn,WindDirection,WindDirectionDegrees,WindSpeedMPH,WindSpeedGustMPH,Humidity,HourlyPrecipIn,Conditions,Clouds,dailyrainin,SoftwareType,DateUTC
2013-01-24 00:03:00,37.4,36.6,29.70,NNE,23,0.0,0.0,97,0.00,,,0.00,WUHU216HW,2013-01-24 08:03:00,
2013-01-24 00:08:00,37.4,36.6,29.70,NNE,23,0.0,0.0,97,0.00,,,0.00,WUHU216HW,2013-01-24 08:08:00,
2013-01-24 00:13:00,37.4,36.6,29.70,NNE,23,0.0,0.0,97,0.00,,,0.00,WUHU216HW,2013-01-24 08:13:00,
2013-01-24 00:18:00,37.4,36.6,29.70,NNE,23,0.0,0.0,97,0.00,,,0.00,WUHU216HW,2013-01-24 08:18:00,
2013-01-24 00:23:00,37.4,36.6,29.71,NNE,23,0.0,0.0,97,0.00,,,0.00,WUHU216HW,2013-01-24 08:23:00,
2013-01-24 00:28:00,37.4,36.6,29.71,NNE,23,0.0,0.0,97,0.00,,,0.00,WUHU216HW,2013-01-24 08:28:00,
2013-01-24 00:33:00,37.4,36.6,29.71,NNE,23,0.0,0.0,97,0.00,,,0.00,WUHU216HW,2013-01-24 08:33:00,
2013-01-24 00:38:00,37.4,36.6,29.71,NNE,23,0.0,0.0,97,0.00,,,0.00,WUHU216HW,2013-01-24 08:38:00,
2013-01-24 00:43:00,37.3,36.5,29.71,NNE,23,0.0,0.0,97,0.00,,,0.00,WUHU216HW,2013-01-24 08:43:00,
2013-01-24 00:48:00,37.3,36.5,29.72,NNE,23,0.0,0.0,97,0.00,,,0.00,WUHU216HW,2013-01-24 08:48:00,
2013-01-24 00:53:00,37.4,36.6,29.72,NNE,23,0.0,0.0,97,0.00,,,0.00,WUHU216HW,2013-01-24 08:53:00,
2013-01-24 00:58:00,37.4,36.6,29.72,NNE,23,0.0,0.0,97,0.00,,,0.00,WUHU216HW,2013-01-24 08:58:00,
2013-01-24 01:03:00,37.4,36.6,29.72,NNE,23,0.0,0.0,97,0.00,,,0.00,WUHU216HW,2013-01-24 09:03:00,
2013-01-24 01:08:00,37.3,36.5,29.72,NNE,23,0.0,0.0,97,0.00,,,0.00,WUHU216HW,2013-01-24 09:08:00,
2013-01-24 01:13:00,37.3,36.5,29.72,NNE,23,0.0,0.0,97,0.00,,,0.00,WUHU216HW,2013-01-24 09:13:00,
2013-01-24 01:18:00,37.3,36.5,29.73,NNE,23,0.0,0.0,97,0.00,,,0.00,WUHU216HW,2013-01-24 09:18:00,
2013-01-24 01:23:00,37.3,36.5,29.73,NNE,23,0.0,0.0,97,0.00,,,0.00,WUHU216HW,2013-01-24 09:23:00,
2013-01-24 01:28:00,37.3,36.5,29.73,NNE,23,0.0,0.0,97,0.00,,,0.00,WUHU216HW,2013-01-24 09:28:00,
2013-01-24 01:33:00,37.3,36.5,29.73,NNE,23,0.0,0.0,97,0.00,,,0.00,WUHU216HW,2013-01-24 09:33:00,
2013-01-24 01:38:00,37.3,36.5,29.73,NNE,23,0.0,0.0,97,0.00,,,0.00,WUHU216HW,2013-01-24 09:38:00,
2013-01-24 01:43:00,37.3,36.5,29.73,NNE,23,0.0,0.0,97,0.00,,,0.00,WUHU216HW,2013-01-24 09:43:00,
2013-01-24 01:48:00,37.3,36.5,29.74,NNE,23,0.0,0.0,97,0.00,,,0.00,WUHU216HW,2013-01-24 09:48:00,
2013-01-24 01:53:00,37.3,36.5,29.74,NNE,23,0.4,1.1,97,0.00,,,0.00,WUHU216HW,2013-01-24 09:53:00,
2013-01-24 01:58:00,37.3,36.5,29.74,NNE,23,0.0,1.1,97,0.00,,,0.00,WUHU216HW,2013-01-24 09:58:00,
2013-01-24 02:03:00,37.3,36.5,29.74,NNE,23,0.0,0.4,97,0.00,,,0.00,WUHU216HW,2013-01-24 10:03:00,
2013-01-24 02:09:00,37.1,36.3,29.75,NNE,23,0.0,0.0,97,0.00,,,0.00,WUHU216HW,2013-01-24 10:09:00,
2013-01-24 02:14:00,37.1,36.3,29.75,NNE,23,0.0,0.0,97,0.00,,,0.00,WUHU216HW,2013-01-24 10:14:00,
2013-01-24 02:19:00,37.1,36.3,29.75,NNE,23,0.0,0.0,97,0.00,,,0.00,WUHU216HW,2013-01-24 10:19:00,
2013-01-24 02:24:00,37.1,36.3,29.75,NNE,23,0.0,0.0,97,0.00,,,0.00,WUHU216HW,2013-01-24 10:24:00,
2013-01-24 02:29:00,37.1,36.3,29.75,NNE,23,0.0,0.0,97,0.00,,,0.00,WUHU216HW,2013-01-24 10:29:00,
2013-01-24 02:34:00,37.1,36.3,29.75,NNE,23,0.2,0.4,97,0.00,,,0.00,WUHU216HW,2013-01-24 10:34:00,
2013-01-24 02:39:00,37.1,36.3,29.75,NNE,23,0.0,0.4,97,0.00,,,0.00,WUHU216HW,2013-01-24 10:39:00,
2013-01-24 02:44:00,37.1,36.3,29.75,NNE,23,0.0,0.2,97,0.00,,,0.00,WUHU216HW,2013-01-24 10:44:00,
2013-01-24 02:49:00,37.1,36.3,29.75,NNE,23,0.0,0.0,97,0.00,,,0.00,WUHU216HW,2013-01-24 10:49:00,
2013-01-24 02:54:00,37.1,36.3,29.75,NNE,23,0.0,0.0,97,0.00,,,0.00,WUHU216HW,2013-01-24 10:54:00,
2013-01-24 02:59:00,37.1,36.3,29.75,NNE,23,0.0,0.0,97,0.00,,,0.00,WUHU216HW,2013-01-24 10:59:00,
2013-01-24 03:04:00,37.1,36.3,29.75,NNE,23,1.1,1.1,97,0.00,,,0.00,WUHU216HW,2013-01-24 11:04:00,
2013-01-24 03:09:00,37.1,36.3,29.76,NNE,23,0.0,1.1,97,0.00,,,0.00,WUHU216HW,2013-01-24 11:09:00,
2013-01-24 03:14:00,36.9,36.1,29.76,NNE,23,0.2,1.1,97,0.01,,,0.02,WUHU216HW,2013-01-24 11:14:00,
2013-01-24 03:19:00,36.9,36.1,29.76,NNE,23,0.0,0.7,97,0.01,,,0.02,WUHU216HW,2013-01-24 11:19:00,
2013-01-24 03:24:00,36.9,36.1,29.76,NNE,23,0.0,0.2,97,0.01,,,0.02,WUHU216HW,2013-01-24 11:24:00,
2013-01-24 03:29:00,36.9,36.1,29.76,NNE,23,0.0,0.0,97,0.01,,,0.02,WUHU216HW,2013-01-24 11:29:00,
2013-01-24 03:34:00,36.9,36.1,29.76,NNE,23,0.4,0.4,97,0.01,,,0.02,WUHU216HW,2013-01-24 11:34:00,
2013-01-24 03:39:00,36.9,36.1,29.75,NNE,23,0.2,0.7,97,0.01,,,0.02,WUHU216HW,2013-01-24 11:39:00,
2013-01-24 03:44:00,36.7,35.9,29.75,NNE,23,0.0,0.7,97,0.01,,,0.02,WUHU216HW,2013-01-24 11:44:00,
2013-01-24 03:49:00,36.7,35.9,29.75,NNE,23,0.0,0.4,97,0.01,,,0.02,WUHU216HW,2013-01-24 11:49:00,
2013-01-24 03:54:00,36.7,35.9,29.75,WNW,293,0.0,0.7,97,0.01,,,0.02,WUHU216HW,2013-01-24 11:54:00,
2013-01-24 03:59:00,36.5,35.7,29.75,WNW,293,0.0,0.7,97,0.01,,,0.02,WUHU216HW,2013-01-24 11:59:00,
2013-01-24 04:04:00,36.5,35.7,29.75,ENE,68,0.0,0.0,97,0.01,,,0.02,WUHU216HW,2013-01-24 12:04:00,
2013-01-24 04:09:00,36.5,35.7,29.75,ENE,68,0.0,0.0,97,0.01,,,0.02,WUHU216HW,2013-01-24 12:09:00,
2013-01-24 04:14:00,36.4,35.6,29.75,ENE,68,0.0,0.0,97,0.00,,,0.02,WUHU216HW,2013-01-24 12:14:00,
2013-01-24 04:19:00,36.2,35.4,29.75,ENE,68,0.4,0.9,97,0.00,,,0.02,WUHU216HW,2013-01-24 12:19:00,
2013-01-24 04:24:00,36.0,35.2,29.75,ENE,68,0.4,0.9,97,0.00,,,0.02,WUHU216HW,2013-01-24 12:24:00,
2013-01-24 04:29:00,36.0,35.2,29.75,ENE,68,0.0,0.9,97,0.00,,,0.02,WUHU216HW,2013-01-24 12:29:00,
2013-01-24 04:34:00,35.8,35.0,29.75,ENE,68,0.0,0.7,97,0.00,,,0.02,WUHU216HW,2013-01-24 12:34:00,
2013-01-24 04:39:00,35.6,34.8,29.75,ENE,68,0.0,0.7,97,0.00,,,0.02,WUHU216HW,2013-01-24 12:39:00,
2013-01-24 04:44:00,35.6,34.8,29.75,ENE,68,0.0,0.4,97,0.00,,,0.02,WUHU216HW,2013-01-24 12:44:00,
2013-01-24 04:49:00,35.6,34.8,29.75,ENE,68,0.0,0.4,97,0.00,,,0.02,WUHU216HW,2013-01-24 12:49:00,
2013-01-24 04:54:00,35.6,34.8,29.75,ENE,68,0.0,0.0,97,0.00,,,0.02,WUHU216HW,2013-01-24 12:54:00,
2013-01-24 04:59:00,35.6,34.8,29.75,ENE,68,0.4,0.7,97,0.00,,,0.02,WUHU216HW,2013-01-24 12:59:00,
2013-01-24 05:04:00,35.6,34.8,29.75,ENE,68,0.0,0.7,97,0.00,,,0.02,WUHU216HW,2013-01-24 13:04:00,
2013-01-24 05:09:00,35.6,34.8,29.75,ENE,68,0.0,0.4,97,0.00,,,0.02,WUHU216HW,2013-01-24 13:09:00,
2013-01-24 05:14:00,35.6,34.8,29.75,ENE,68,0.4,0.7,97,0.00,,,0.02,WUHU216HW,2013-01-24 13:14:00,
2013-01-24 05:19:00,35.5,34.7,29.75,ENE,68,0.0,0.7,97,0.00,,,0.02,WUHU216HW,2013-01-24 13:19:00,
2013-01-24 05:24:00,35.5,34.7,29.75,ENE,68,0.4,0.7,97,0.00,,,0.02,WUHU216HW,2013-01-24 13:24:00,
2013-01-24 05:29:00,35.6,34.8,29.75,ENE,68,0.0,0.7,97,0.00,,,0.02,WUHU216HW,2013-01-24 13:29:00,
2013-01-24 05:34:00,35.6,34.8,29.76,ENE,68,0.0,0.4,97,0.00,,,0.02,WUHU216HW,2013-01-24 13:34:00,
2013-01-24 05:39:00,35.6,34.8,29.76,ENE,68,0.0,0.0,97,0.00,,,0.02,WUHU216HW,2013-01-24 13:39:00,
2013-01-24 05:44:00,35.6,34.8,29.76,ENE,68,0.0,0.0,97,0.00,,,0.02,WUHU216HW,2013-01-24 13:44:00,
2013-01-24 05:49:00,35.6,34.8,29.77,ENE,68,0.0,0.0,97,0.00,,,0.02,WUHU216HW,2013-01-24 13:49:00,
2013-01-24 05:54:00,35.6,34.8,29.77,ENE,68,0.0,0.0,97,0.00,,,0.02,WUHU216HW,2013-01-24 13:54:00,
2013-01-24 05:59:00,35.6,34.8,29.77,ENE,68,0.4,0.4,97,0.00,,,0.02,WUHU216HW,2013-01-24 13:59:00,
2013-01-24 06:04:00,35.6,34.8,29.77,ENE,68,0.0,0.4,97,0.00,,,0.02,WUHU216HW,2013-01-24 14:04:00,
2013-01-24 06:09:00,35.6,34.8,29.77,ENE,68,0.4,0.4,97,0.00,,,0.02,WUHU216HW,2013-01-24 14:09:00,
2013-01-24 06:14:00,35.6,34.8,29.77,ENE,68,0.0,0.4,97,0.00,,,0.02,WUHU216HW,2013-01-24 14:14:00,
2013-01-24 06:19:00,35.6,34.8,29.77,ENE,68,0.0,0.4,97,0.00,,,0.02,WUHU216HW,2013-01-24 14:19:00,
2013-01-24 06:24:00,35.6,34.8,29.77,ENE,68,0.0,0.0,97,0.00,,,0.02,WUHU216HW,2013-01-24 14:24:00,
2013-01-24 06:29:00,35.6,34.8,29.78,ENE,68,0.0,0.0,97,0.00,,,0.02,WUHU216HW,2013-01-24 14:29:00,
2013-01-24 06:34:00,35.6,34.8,29.77,NE,45,0.7,0.9,97,0.00,,,0.02,WUHU216HW,2013-01-24 14:34:00,
2013-01-24 06:39:00,35.6,34.8,29.77,NE,45,0.7,1.1,97,0.00,,,0.02,WUHU216HW,2013-01-24 14:39:00,
2013-01-24 06:44:00,35.6,34.8,29.76,NE,45,0.4,1.1,97,0.00,,,0.02,WUHU216HW,2013-01-24 14:44:00,
2013-01-24 06:49:00,35.8,35.0,29.76,ENE,68,0.4,1.3,97,0.00,,,0.02,WUHU216HW,2013-01-24 14:49:00,
2013-01-24 06:54:00,35.8,35.0,29.76,ENE,68,0.7,1.3,97,0.00,,,0.02,WUHU216HW,2013-01-24 14:54:00,
2013-01-24 06:59:00,36.0,35.2,29.76,NNE,23,0.4,1.3,97,0.00,,,0.02,WUHU216HW,2013-01-24 14:59:00,
2013-01-24 07:04:00,36.2,35.4,29.76,NNE,23,0.0,1.1,97,0.00,,,0.02,WUHU216HW,2013-01-24 15:04:00,
2013-01-24 07:09:00,36.2,35.4,29.76,NNE,23,0.2,0.4,97,0.00,,,0.02,WUHU216HW,2013-01-24 15:09:00,
2013-01-24 07:14:00,36.4,35.6,29.76,NNE,23,0.4,0.7,97,0.00,,,0.02,WUHU216HW,2013-01-24 15:14:00,
2013-01-24 07:19:00,36.4,35.6,29.76,NNE,23,0.4,0.7,97,0.00,,,0.02,WUHU216HW,2013-01-24 15:19:00,
2013-01-24 07:24:00,36.4,35.6,29.76,NNE,23,0.7,0.7,97,0.00,,,0.02,WUHU216HW,2013-01-24 15:24:00,
2013-01-24 07:29:00,36.4,35.6,29.76,NNE,23,0.4,0.7,97,0.00,,,0.02,WUHU216HW,2013-01-24 15:29:00,
2013-01-24 07:34:00,36.4,35.6,29.76,NNE,23,0.4,0.7,97,0.00,,,0.02,WUHU216HW,2013-01-24 15:34:00,
2013-01-24 07:39:00,36.4,35.6,29.76,NNE,23,0.0,0.7,97,0.00,,,0.02,WUHU216HW,2013-01-24 15:39:00,
2013-01-24 07:44:00,36.4,35.6,29.76,NNE,23,0.4,0.9,97,0.00,,,0.02,WUHU216HW,2013-01-24 15:44:00,
2013-01-24 07:49:00,36.4,35.6,29.75,NNE,23,0.4,0.9,97,0.00,,,0.02,WUHU216HW,2013-01-24 15:49:00,
2013-01-24 07:54:00,36.4,35.6,29.76,NNE,23,0.0,0.4,97,0.00,,,0.02,WUHU216HW,2013-01-24 15:54:00,
2013-01-24 07:59:00,36.4,35.6,29.76,NNE,23,0.2,0.4,97,0.00,,,0.02,WUHU216HW,2013-01-24 15:59:00,
2013-01-24 08:04:00,36.4,35.6,29.76,NNE,23,0.0,0.4,97,0.00,,,0.02,WUHU216HW,2013-01-24 16:04:00,
2013-01-24 08:09:00,36.4,35.6,29.76,NNE,23,0.0,0.2,97,0.00,,,0.02,WUHU216HW,2013-01-24 16:09:00,
2013-01-24 08:14:00,36.4,35.6,29.76,NNE,23,0.0,0.0,97,0.00,,,0.02,WUHU216HW,2013-01-24 16:14:00,
2013-01-24 08:19:00,36.2,35.4,29.76,NNE,23,0.2,0.7,97,0.00,,,0.02,WUHU216HW,2013-01-24 16:19:00,
2013-01-24 08:24:00,36.2,35.4,29.76,NNE,23,0.0,0.7,97,0.00,,,0.02,WUHU216HW,2013-01-24 16:24:00,
2013-01-24 08:29:00,36.0,35.2,29.75,NNE,23,0.4,0.7,97,0.00,,,0.02,WUHU216HW,2013-01-24 16:29:00,
2013-01-24 08:34:00,36.0,35.2,29.75,NNE,23,0.0,0.7,97,0.00,,,0.02,WUHU216HW,2013-01-24 16:34:00,
2013-01-24 08:39:00,36.0,35.2,29.75,NE,45,0.0,0.4,97,0.00,,,0.02,WUHU216HW,2013-01-24 16:39:00,
2013-01-24 08:44:00,35.8,35.0,29.74,East,90,0.0,0.4,97,0.00,,,0.02,WUHU216HW,2013-01-24 16:44:00,
2013-01-24 08:49:00,36.0,35.2,29.74,NE,45,0.2,0.4,97,0.00,,,0.02,WUHU216HW,2013-01-24 16:49:00,
2013-01-24 08:54:00,36.2,35.4,29.75,NE,45,0.0,0.9,97,0.00,,,0.02,WUHU216HW,2013-01-24 16:54:00,
2013-01-24 08:59:00,36.4,35.6,29.75,NE,45,0.0,0.9,97,0.00,,,0.02,WUHU216HW,2013-01-24 16:59:00,
2013-01-24 09:04:00,36.5,35.7,29.75,NE,45,0.0,0.4,97,0.00,,,0.02,WUHU216HW,2013-01-24 17:04:00,
2013-01-24 09:09:00,36.5,35.7,29.75,NE,45,0.2,0.4,97,0.00,,,0.02,WUHU216HW,2013-01-24 17:09:00,
2013-01-24 09:14:00,36.7,35.9,29.75,NE,45,0.2,0.4,97,0.00,,,0.02,WUHU216HW,2013-01-24 17:14:00,
2013-01-24 09:19:00,36.7,35.9,29.75,NE,45,0.0,0.4,97,0.00,,,0.02,WUHU216HW,2013-01-24 17:19:00,
2013-01-24 09:24:00,36.7,35.9,29.75,NE,45,0.0,0.2,97,0.00,,,0.02,WUHU216HW,2013-01-24 17:24:00,
2013-01-24 09:29:00,36.7,35.9,29.75,ESE,113,0.0,1.6,97,0.00,,,0.02,WUHU216HW,2013-01-24 17:29:00,
2013-01-24 09:34:00,36.9,36.1,29.75,NNE,23,1.1,1.6,97,0.00,,,0.02,WUHU216HW,2013-01-24 17:34:00,
2013-01-24 09:39:00,37.1,36.3,29.75,North,0,0.2,1.3,97,0.00,,,0.02,WUHU216HW,2013-01-24 17:39:00,
2013-01-24 09:44:00,37.1,36.3,29.75,NE,45,0.2,1.1,97,0.00,,,0.02,WUHU216HW,2013-01-24 17:44:00,
2013-01-24 09:49:00,37.3,36.5,29.75,ENE,68,0.0,0.7,97,0.00,,,0.02,WUHU216HW,2013-01-24 17:49:00,
2013-01-24 09:54:00,37.6,36.8,29.75,ENE,68,0.0,0.7,97,0.00,,,0.02,WUHU216HW,2013-01-24 17:54:00,
2013-01-24 09:59:00,37.8,37.0,29.75,East,90,0.0,0.4,97,0.00,,,0.02,WUHU216HW,2013-01-24 17:59:00,
2013-01-24 10:04:00,38.0,37.2,29.75,East,90,0.0,0.4,97,0.00,,,0.02,WUHU216HW,2013-01-24 18:04:00,
2013-01-24 10:09:00,38.2,37.4,29.75,NNE,23,0.2,0.7,97,0.00,,,0.02,WUHU216HW,2013-01-24 18:09:00,
2013-01-24 10:14:00,38.5,37.7,29.75,NE,45,0.0,0.7,97,0.00,,,0.02,WUHU216HW,2013-01-24 18:14:00,
2013-01-24 10:19:00,38.7,37.9,29.74,NE,45,0.0,0.2,97,0.00,,,0.02,WUHU216HW,2013-01-24 18:19:00,
2013-01-24 10:24:00,38.9,38.1,29.74,East,90,0.0,0.4,97,0.00,,,0.02,WUHU216HW,2013-01-24 18:24:00,
2013-01-24 10:29:00,39.2,38.4,29.74,East,90,0.0,0.4,97,0.00,,,0.02,WUHU216HW,2013-01-24 18:29:00,
2013-01-24 10:34:00,39.4,38.6,29.73,NE,45,0.2,1.6,97,0.00,,,0.02,WUHU216HW,2013-01-24 18:34:00,
2013-01-24 10:39:00,39.6,38.8,29.73,NE,45,0.4,1.6,97,0.00,,,0.02,WUHU216HW,2013-01-24 18:39:00,
2013-01-24 10:44:00,40.0,39.2,29.73,NNE,23,1.1,2.5,97,0.00,,,0.02,WUHU216HW,2013-01-24 18:44:00,
2013-01-24 10:49:00,40.1,39.3,29.73,North,0,0.7,2.5,97,0.00,,,0.02,WUHU216HW,2013-01-24 18:49:00,
2013-01-24 10:54:00,40.3,39.5,29.73,NW,315,0.0,1.8,97,0.00,,,0.02,WUHU216HW,2013-01-24 18:54:00,
2013-01-24 10:59:00,40.5,39.7,29.73,NNW,338,0.2,1.6,97,0.00,,,0.02,WUHU216HW,2013-01-24 18:59:00,
2013-01-24 11:04:00,40.9,40.1,29.73,NNW,338,0.0,0.9,97,0.00,,,0.02,WUHU216HW,2013-01-24 19:04:00,
2013-01-24 11:09:00,41.2,40.1,29.73,NNW,338,0.4,0.7,96,0.00,,,0.02,WUHU216HW,2013-01-24 19:09:00,
2013-01-24 11:14:00,41.2,40.1,29.73,NNW,338,0.4,0.7,96,0.00,,,0.02,WUHU216HW,2013-01-24 19:14:00,
2013-01-24 11:19:00,41.4,40.3,29.73,NNW,338,0.0,0.4,96,0.00,,,0.02,WUHU216HW,2013-01-24 19:19:00,
2013-01-24 11:24:00,41.6,40.8,29.73,North,0,0.2,0.7,97,0.00,,,0.02,WUHU216HW,2013-01-24 19:24:00,
2013-01-24 11:29:00,41.8,41.0,29.72,North,0,0.4,1.1,97,0.00,,,0.02,WUHU216HW,2013-01-24 19:29:00,
2013-01-24 11:34:00,41.9,41.1,29.72,North,0,0.4,1.1,97,0.00,,,0.02,WUHU216HW,2013-01-24 19:34:00,
2013-01-24 11:39:00,42.1,41.3,29.72,North,0,0.0,1.3,97,0.00,,,0.02,WUHU216HW,2013-01-24 19:39:00,
2013-01-24 11:44:00,42.3,41.5,29.72,ESE,113,0.4,1.3,97,0.00,,,0.02,WUHU216HW,2013-01-24 19:44:00,
2013-01-24 11:49:00,42.5,41.7,29.72,NNW,338,0.0,0.7,97,0.00,,,0.02,WUHU216HW,2013-01-24 19:49:00,
2013-01-24 11:54:00,42.5,41.7,29.71,SE,135,0.0,0.7,97,0.00,,,0.02,WUHU216HW,2013-01-24 19:54:00,
2013-01-24 11:59:00,42.8,42.0,29.71,ESE,113,0.0,0.4,97,0.00,,,0.02,WUHU216HW,2013-01-24 19:59:00,
2013-01-24 12:04:00,42.8,42.0,29.71,ESE,113,0.0,0.0,97,0.00,,,0.02,WUHU216HW,2013-01-24 20:04:00,
2013-01-24 12:09:00,42.8,42.0,29.70,ESE,113,0.0,0.2,97,0.00,,,0.02,WUHU216HW,2013-01-24 20:09:00,
2013-01-24 12:14:00,42.8,42.0,29.70,ESE,113,0.2,0.9,97,0.00,,,0.02,WUHU216HW,2013-01-24 20:14:00,
2013-01-24 12:19:00,42.8,42.0,29.70,ESE,113,0.0,0.9,97,0.00,,,0.02,WUHU216HW,2013-01-24 20:19:00,
2013-01-24 12:24:00,42.8,42.0,29.70,ESE,113,0.0,0.4,97,0.00,,,0.02,WUHU216HW,2013-01-24 20:24:00,
2013-01-24 12:29:00,43.0,42.2,29.69,ESE,113,0.2,0.4,97,0.00,,,0.02,WUHU216HW,2013-01-24 20:29:00,
2013-01-24 12:34:00,43.2,42.4,29.69,ESE,113,0.0,0.9,97,0.00,,,0.02,WUHU216HW,2013-01-24 20:34:00,
2013-01-24 12:39:00,43.4,42.6,29.68,ESE,113,0.2,0.9,97,0.00,,,0.02,WUHU216HW,2013-01-24 20:39:00,
2013-01-24 12:44:00,43.4,42.6,29.68,NNE,23,1.1,1.1,97,0.00,,,0.02,WUHU216HW,2013-01-24 20:44:00,
2013-01-24 12:49:00,43.4,42.6,29.68,NNE,23,2.0,2.2,97,0.00,,,0.02,WUHU216HW,2013-01-24 20:49:00,
2013-01-24 12:54:00,43.6,42.8,29.68,SSE,158,0.0,2.2,97,0.00,,,0.02,WUHU216HW,2013-01-24 20:54:00,
2013-01-24 12:59:00,43.4,42.6,29.68,SSE,158,1.8,2.0,97,0.00,,,0.02,WUHU216HW,2013-01-24 20:59:00,
2013-01-24 13:04:00,43.6,42.8,29.67,East,90,1.8,1.8,97,0.00,,,0.02,WUHU216HW,2013-01-24 21:04:00,
2013-01-24 13:09:00,43.4,42.6,29.67,North,0,1.8,1.8,97,0.00,,,0.02,WUHU216HW,2013-01-24 21:09:00,
2013-01-24 13:14:00,43.2,42.4,29.67,WSW,248,0.9,2.0,97,0.00,,,0.02,WUHU216HW,2013-01-24 21:14:00,
2013-01-24 13:19:00,43.2,42.4,29.67,ENE,68,1.1,2.0,97,0.00,,,0.02,WUHU216HW,2013-01-24 21:19:00,
2013-01-24 13:24:00,43.2,42.4,29.67,North,0,0.4,2.0,97,0.00,,,0.02,WUHU216HW,2013-01-24 21:24:00,
2013-01-24 13:29:00,43.0,42.2,29.67,East,90,0.0,1.1,97,0.00,,,0.02,WUHU216HW,2013-01-24 21:29:00,
2013-01-24 13:34:00,42.8,42.0,29.66,SSW,203,0.0,2.0,97,0.00,,,0.02,WUHU216HW,2013-01-24 21:34:00,
2013-01-24 13:39:00,42.8,42.0,29.67,SW,225,0.0,2.0,97,0.00,,,0.02,WUHU216HW,2013-01-24 21:39:00,
2013-01-24 13:44:00,42.7,41.9,29.67,NW,315,0.7,0.7,97,0.00,,,0.02,WUHU216HW,2013-01-24 21:44:00,
2013-01-24 13:49:00,42.7,41.9,29.66,NNE,23,0.0,0.7,97,0.00,,,0.02,WUHU216HW,2013-01-24 21:49:00,
2013-01-24 13:54:00,42.7,41.9,29.66,NNE,23,0.7,0.7,97,0.00,,,0.02,WUHU216HW,2013-01-24 21:54:00,
2013-01-24 13:59:00,42.7,41.9,29.66,NNE,23,0.0,0.7,97,0.00,,,0.02,WUHU216HW,2013-01-24 21:59:00,
2013-01-24 14:04:00,42.3,41.5,29.66,NNE,23,0.0,0.7,97,0.00,,,0.02,WUHU216HW,2013-01-24 22:04:00,
2013-01-24 14:09:00,42.1,41.3,29.65,NNE,23,0.0,0.2,97,0.00,,,0.02,WUHU216HW,2013-01-24 22:09:00,
2013-01-24 14:14:00,42.1,41.3,29.65,NNE,23,0.4,1.1,97,0.00,,,0.02,WUHU216HW,2013-01-24 22:14:00,
2013-01-24 14:19:00,42.1,41.3,29.65,NNE,23,0.0,1.1,97,0.00,,,0.02,WUHU216HW,2013-01-24 22:19:00,
2013-01-24 14:24:00,41.9,41.1,29.65,NNE,23,0.0,0.7,97,0.00,,,0.02,WUHU216HW,2013-01-24 22:24:00,
2013-01-24 14:29:00,41.8,41.0,29.65,NNE,23,0.0,0.0,97,0.00,,,0.02,WUHU216HW,2013-01-24 22:29:00,
2013-01-24 14:34:00,41.6,40.8,29.65,NNE,23,0.0,0.0,97,0.00,,,0.02,WUHU216HW,2013-01-24 22:34:00,
2013-01-24 14:39:00,41.6,40.8,29.64,NNE,23,0.0,0.0,97,0.00,,,0.02,WUHU216HW,2013-01-24 22:39:00,
2013-01-24 14:44:00,41.4,40.3,29.64,SSE,158,0.0,0.9,96,0.00,,,0.02,WUHU216HW,2013-01-24 22:44:00,
2013-01-24 14:49:00,41.4,40.3,29.64,SSE,158,0.0,0.9,96,0.00,,,0.02,WUHU216HW,2013-01-24 22:49:00,
2013-01-24 14:54:00,41.4,40.3,29.64,SE,135,0.0,0.2,96,0.00,,,0.02,WUHU216HW,2013-01-24 22:54:00,
2013-01-24 14:59:00,41.2,40.1,29.64,SE,135,0.0,0.4,96,0.00,,,0.02,WUHU216HW,2013-01-24 22:59:00,
2013-01-24 15:04:00,41.0,40.0,29.64,SSW,203,0.0,1.8,96,0.00,,,0.02,WUHU216HW,2013-01-24 23:04:00,
2013-01-24 15:09:00,41.0,40.0,29.64,SSE,158,0.0,1.8,96,0.00,,,0.02,WUHU216HW,2013-01-24 23:09:00,
2013-01-24 15:14:00,40.9,39.8,29.64,SSW,203,0.0,0.4,96,0.00,,,0.02,WUHU216HW,2013-01-24 23:14:00,
2013-01-24 15:19:00,40.7,39.6,29.64,SW,225,0.9,0.9,96,0.00,,,0.02,WUHU216HW,2013-01-24 23:19:00,
2013-01-24 15:24:00,40.7,39.6,29.64,SSE,158,0.0,0.9,96,0.00,,,0.02,WUHU216HW,2013-01-24 23:24:00,
2013-01-24 15:29:00,40.7,39.6,29.63,SSE,158,0.4,0.9,96,0.00,,,0.02,WUHU216HW,2013-01-24 23:29:00,
2013-01-24 15:34:00,40.3,39.2,29.63,SSW,203,0.0,0.9,96,0.00,,,0.02,WUHU216HW,2013-01-24 23:34:00,
2013-01-24 15:39:00,40.3,39.2,29.63,SSW,203,0.0,0.9,96,0.00,,,0.02,WUHU216HW,2013-01-24 23:39:00,
2013-01-24 15:44:00,40.3,39.2,29.64,SSW,203,0.0,0.0,96,0.00,,,0.02,WUHU216HW,2013-01-24 23:44:00,
2013-01-24 15:49:00,40.1,39.1,29.63,SSW,203,0.0,0.0,96,0.00,,,0.02,WUHU216HW,2013-01-24 23:49:00,
2013-01-24 15:54:00,40.0,38.9,29.64,SSW,203,0.0,0.0,96,0.00,,,0.02,WUHU216HW,2013-01-24 23:54:00,
2013-01-24 15:59:00,39.8,38.7,29.62,NE,45,1.8,1.8,96,0.00,,,0.02,WUHU216HW,2013-01-24 23:59:00,
2013-01-24 16:04:00,39.6,38.5,29.62,NNE,23,1.3,2.2,96,0.00,,,0.02,WUHU216HW,2013-01-25 00:04:00,
2013-01-24 16:09:00,39.4,38.3,29.62,South,180,0.7,2.2,96,0.00,,,0.02,WUHU216HW,2013-01-25 00:09:00,
2013-01-24 16:14:00,39.4,38.3,29.62,South,180,0.0,1.3,96,0.00,,,0.02,WUHU216HW,2013-01-25 00:14:00,
2013-01-24 16:19:00,39.2,38.2,29.62,WSW,248,2.2,2.2,96,0.00,,,0.02,WUHU216HW,2013-01-25 00:19:00,
2013-01-24 16:24:00,39.2,38.2,29.62,WSW,248,1.1,3.4,96,0.00,,,0.02,WUHU216HW,2013-01-25 00:24:00,
2013-01-24 16:29:00,39.2,38.2,29.63,SSE,158,1.1,3.4,96,0.00,,,0.02,WUHU216HW,2013-01-25 00:29:00,
2013-01-24 16:34:00,39.2,38.2,29.63,SE,135,0.2,1.8,96,0.00,,,0.02,WUHU216HW,2013-01-25 00:34:00,
2013-01-24 16:39:00,39.2,38.2,29.64,SSW,203,2.5,2.5,96,0.00,,,0.02,WUHU216HW,2013-01-25 00:39:00,
2013-01-24 16:44:00,39.1,38.0,29.65,South,180,0.9,2.5,96,0.00,,,0.02,WUHU216HW,2013-01-25 00:44:00,
2013-01-24 16:49:00,39.1,38.0,29.66,SW,225,0.7,2.5,96,0.00,,,0.02,WUHU216HW,2013-01-25 00:49:00,
2013-01-24 16:54:00,39.2,38.2,29.66,SW,225,3.4,6.3,96,0.00,,,0.02,WUHU216HW,2013-01-25 00:54:00,
2013-01-24 16:59:00,39.4,38.3,29.67,SSE,158,1.8,6.3,96,0.00,,,0.02,WUHU216HW,2013-01-25 00:59:00,
2013-01-24 17:04:00,39.4,38.3,29.67,WSW,248,0.7,3.6,96,0.00,,,0.02,WUHU216HW,2013-01-25 01:04:00,
2013-01-24 17:09:00,39.6,38.5,29.67,ESE,113,0.9,1.8,96,0.00,,,0.02,WUHU216HW,2013-01-25 01:09:00,
2013-01-24 17:14:00,39.4,38.3,29.67,NNE,23,2.9,3.6,96,0.00,,,0.02,WUHU216HW,2013-01-25 01:14:00,
2013-01-24 17:19:00,39.2,38.2,29.68,SSW,203,0.0,3.6,96,0.00,,,0.02,WUHU216HW,2013-01-25 01:19:00,
2013-01-24 17:24:00,39.2,38.2,29.68,NE,45,0.9,2.9,96,0.01,,,0.02,WUHU216HW,2013-01-25 01:24:00,
2013-01-24 17:29:00,39.1,38.0,29.68,NE,45,0.4,1.3,96,0.01,,,0.02,WUHU216HW,2013-01-25 01:29:00,
2013-01-24 17:34:00,39.1,38.0,29.67,NE,45,0.0,1.3,96,0.02,,,0.04,WUHU216HW,2013-01-25 01:34:00,
2013-01-24 17:39:00,38.9,37.8,29.67,NNE,23,0.0,0.9,96,0.03,,,0.04,WUHU216HW,2013-01-25 01:39:00,
2013-01-24 17:44:00,38.9,37.8,29.66,NNE,23,1.3,1.8,96,0.03,,,0.04,WUHU216HW,2013-01-25 01:44:00,
2013-01-24 17:49:00,38.7,37.6,29.67,NNE,23,0.0,1.8,96,0.04,,,0.06,WUHU216HW,2013-01-25 01:49:00,
2013-01-24 17:54:00,38.9,37.8,29.67,NNE,23,0.0,1.3,96,0.05,,,0.06,WUHU216HW,2013-01-25 01:54:00,
2013-01-24 17:59:00,38.9,37.8,29.67,NNE,23,0.0,0.4,96,0.06,,,0.08,WUHU216HW,2013-01-25 01:59:00,
2013-01-24 18:04:00,38.9,37.8,29.68,NNE,23,0.0,0.4,96,0.07,,,0.09,WUHU216HW,2013-01-25 02:04:00,
2013-01-24 18:09:00,38.9,37.8,29.68,NNE,23,0.4,0.4,96,0.08,,,0.09,WUHU216HW,2013-01-25 02:09:00,
2013-01-24 18:14:00,38.9,37.8,29.67,NE,45,0.7,1.6,96,0.10,,,0.11,WUHU216HW,2013-01-25 02:14:00,
2013-01-24 18:19:00,38.7,37.6,29.66,NE,45,1.1,1.6,96,0.10,,,0.11,WUHU216HW,2013-01-25 02:19:00,
2013-01-24 18:24:00,38.7,37.6,29.67,NE,45,0.0,1.1,96,0.10,,,0.13,WUHU216HW,2013-01-25 02:24:00,
2013-01-24 18:29:00,38.7,37.6,29.67,NE,45,0.2,1.1,96,0.09,,,0.13,WUHU216HW,2013-01-25 02:29:00,
2013-01-24 18:34:00,38.7,37.6,29.67,NNE,23,1.1,1.1,96,0.10,,,0.14,WUHU216HW,2013-01-25 02:34:00,
2013-01-24 18:39:00,38.7,37.6,29.66,North,0,0.9,1.1,96,0.09,,,0.14,WUHU216HW,2013-01-25 02:39:00,
2013-01-24 18:44:00,38.9,37.8,29.67,NNE,23,0.2,1.1,96,0.09,,,0.15,WUHU216HW,2013-01-25 02:44:00,
2013-01-24 18:49:00,38.9,37.8,29.66,NNE,23,0.7,1.1,96,0.09,,,0.16,WUHU216HW,2013-01-25 02:49:00,
2013-01-24 18:54:00,38.9,37.8,29.66,NNE,23,0.4,1.1,96,0.09,,,0.16,WUHU216HW,2013-01-25 02:54:00,
2013-01-24 18:59:00,39.1,38.0,29.66,NNE,23,0.4,0.9,96,0.08,,,0.16,WUHU216HW,2013-01-25 02:59:00,
2013-01-24 19:04:00,39.1,38.0,29.66,North,0,1.8,1.8,96,0.07,,,0.17,WUHU216HW,2013-01-25 03:04:00,
2013-01-24 19:09:00,39.2,38.2,29.66,NNE,23,1.6,1.8,96,0.06,,,0.17,WUHU216HW,2013-01-25 03:09:00,
2013-01-24 19:14:00,39.2,38.2,29.65,NNE,23,0.4,2.2,96,0.06,,,0.18,WUHU216HW,2013-01-25 03:14:00,
2013-01-24 19:19:00,39.2,38.2,29.66,NNE,23,0.7,2.2,96,0.06,,,0.18,WUHU216HW,2013-01-25 03:19:00,
2013-01-24 19:24:00,39.2,38.2,29.66,NNE,23,0.4,0.9,96,0.05,,,0.18,WUHU216HW,2013-01-25 03:24:00,
2013-01-24 19:29:00,39.2,38.2,29.66,NNE,23,1.8,2.0,96,0.05,,,0.19,WUHU216HW,2013-01-25 03:29:00,
2013-01-24 19:34:00,39.2,38.2,29.65,NNE,23,0.9,2.0,96,0.05,,,0.19,WUHU216HW,2013-01-25 03:34:00,
2013-01-24 19:39:00,39.2,38.2,29.65,North,0,0.9,1.8,96,0.05,,,0.19,WUHU216HW,2013-01-25 03:39:00,
2013-01-24 19:44:00,39.2,38.2,29.65,NE,45,1.6,1.6,96,0.05,,,0.20,WUHU216HW,2013-01-25 03:44:00,
2013-01-24 19:49:00,39.2,38.2,29.64,WNW,293,0.9,2.0,96,0.04,,,0.20,WUHU216HW,2013-01-25 03:49:00,
2013-01-24 19:54:00,39.2,38.2,29.64,NE,45,0.7,2.0,96,0.04,,,0.20,WUHU216HW,2013-01-25 03:54:00,
2013-01-24 19:59:00,39.2,38.2,29.64,NE,45,2.7,4.5,96,0.05,,,0.21,WUHU216HW,2013-01-25 03:59:00,
2013-01-24 20:04:00,39.2,38.2,29.65,North,0,0.9,4.5,96,0.04,,,0.21,WUHU216HW,2013-01-25 04:04:00,
2013-01-24 20:09:00,39.2,38.2,29.64,North,0,1.3,4.9,96,0.03,,,0.21,WUHU216HW,2013-01-25 04:09:00,
2013-01-24 20:14:00,39.2,38.2,29.64,NNE,23,0.4,4.9,96,0.03,,,0.21,WUHU216HW,2013-01-25 04:14:00,
2013-01-24 20:19:00,39.2,38.2,29.64,North,0,1.8,2.7,96,0.04,,,0.22,WUHU216HW,2013-01-25 04:19:00,
2013-01-24 20:24:00,39.4,38.3,29.64,NNE,23,2.5,2.9,96,0.03,,,0.22,WUHU216HW,2013-01-25 04:24:00,
2013-01-24 20:29:00,39.4,38.3,29.64,ENE,68,0.2,4.5,96,0.03,,,0.22,WUHU216HW,2013-01-25 04:29:00,
2013-01-24 20:34:00,39.2,38.2,29.64,NE,45,0.4,4.5,96,0.03,,,0.22,WUHU216HW,2013-01-25 04:34:00,
2013-01-24 20:39:00,39.2,38.2,29.64,NNE,23,2.5,4.0,96,0.03,,,0.22,WUHU216HW,2013-01-25 04:39:00,
2013-01-24 20:44:00,39.2,38.2,29.64,NE,45,0.7,3.1,96,0.02,,,0.22,WUHU216HW,2013-01-25 04:44:00,
2013-01-24 20:49:00,39.2,38.2,29.65,North,0,1.8,3.8,96,0.02,,,0.22,WUHU216HW,2013-01-25 04:49:00,
2013-01-24 20:54:00,39.2,38.2,29.64,South,180,0.7,4.7,96,0.02,,,0.22,WUHU216HW,2013-01-25 04:54:00,
2013-01-24 20:59:00,39.4,38.3,29.64,NNE,23,4.3,4.7,96,0.01,,,0.22,WUHU216HW,2013-01-25 04:59:00,
2013-01-24 21:00:00,39.4,38.3,29.64,NNE,23,4.3,4.7,96,0.01,,,0.22,WUHU216HW,2013-01-25 05:00:00,
2013-01-24 21:01:00,39.2,38.2,29.64,North,0,5.8,5.8,96,0.01,,,0.22,WUHU216HW,2013-01-25 05:01:00,
2013-01-24 21:03:00,39.2,38.2,29.64,NNE,23,6.3,6.3,96,0.01,,,0.22,WUHU216HW,2013-01-25 05:03:00,
2013-01-24 21:08:00,39.4,38.3,29.63,ENE,68,3.8,6.5,96,0.01,,,0.22,WUHU216HW,2013-01-25 05:08:00,
2013-01-24 21:13:00,39.4,38.3,29.63,NE,45,2.5,6.5,96,0.01,,,0.22,WUHU216HW,2013-01-25 05:13:00,
2013-01-24 21:18:00,39.4,38.3,29.63,NNE,23,1.3,4.9,96,0.00,,,0.22,WUHU216HW,2013-01-25 05:18:00,
2013-01-24 21:23:00,39.2,38.2,29.63,SSW,203,0.9,2.5,96,0.00,,,0.22,WUHU216HW,2013-01-25 05:23:00,
2013-01-24 21:28:00,39.4,38.3,29.63,ENE,68,1.1,2.5,96,0.00,,,0.22,WUHU216HW,2013-01-25 05:28:00,
2013-01-24 21:33:00,39.2,38.2,29.63,NE,45,1.8,2.5,96,0.00,,,0.22,WUHU216HW,2013-01-25 05:33:00,
2013-01-24 21:38:00,39.4,38.3,29.63,NNW,338,0.4,2.9,96,0.00,,,0.22,WUHU216HW,2013-01-25 05:38:00,
2013-01-24 21:43:00,39.2,38.2,29.62,NNE,23,3.8,3.8,96,0.00,,,0.22,WUHU216HW,2013-01-25 05:43:00,
2013-01-24 21:48:00,39.2,38.2,29.62,East,90,2.2,3.8,96,0.00,,,0.22,WUHU216HW,2013-01-25 05:48:00,
2013-01-24 21:53:00,39.4,38.3,29.63,East,90,0.2,3.8,96,0.00,,,0.22,WUHU216HW,2013-01-25 05:53:00,
2013-01-24 21:58:00,39.6,38.5,29.63,NNW,338,0.4,2.2,96,0.00,,,0.22,WUHU216HW,2013-01-25 05:58:00,
2013-01-24 22:03:00,39.6,38.5,29.62,North,0,0.7,2.5,96,0.00,,,0.22,WUHU216HW,2013-01-25 06:03:00,
2013-01-24 22:08:00,39.8,38.7,29.63,ENE,68,1.1,3.1,96,0.00,,,0.22,WUHU216HW,2013-01-25 06:08:00,
2013-01-24 22:13:00,39.8,38.7,29.62,NNE,23,0.9,3.1,96,0.00,,,0.22,WUHU216HW,2013-01-25 06:13:00,
2013-01-24 22:18:00,39.8,38.7,29.63,NNE,23,2.0,2.5,96,0.00,,,0.22,WUHU216HW,2013-01-25 06:18:00,
2013-01-24 22:23:00,39.8,38.7,29.62,North,0,0.4,2.2,96,0.00,,,0.22,WUHU216HW,2013-01-25 06:23:00,
2013-01-24 22:28:00,40.0,38.9,29.62,NE,45,1.1,2.0,96,0.00,,,0.22,WUHU216HW,2013-01-25 06:28:00,
2013-01-24 22:33:00,40.0,38.9,29.62,North,0,1.6,1.6,96,0.00,,,0.22,WUHU216HW,2013-01-25 06:33:00,
2013-01-24 22:38:00,40.0,38.9,29.62,NNE,23,0.9,2.2,96,0.00,,,0.22,WUHU216HW,2013-01-25 06:38:00,
2013-01-24 22:43:00,40.0,38.9,29.61,ENE,68,3.4,3.4,96,0.00,,,0.22,WUHU216HW,2013-01-25 06:43:00,
2013-01-24 22:48:00,40.0,38.9,29.61,ENE,68,0.7,3.4,96,0.00,,,0.22,WUHU216HW,2013-01-25 06:48:00,
2013-01-24 22:53:00,40.1,39.1,29.62,SE,135,0.0,2.2,96,0.00,,,0.22,WUHU216HW,2013-01-25 06:53:00,
2013-01-24 22:58:00,40.1,39.1,29.61,NNW,338,0.0,2.2,96,0.00,,,0.22,WUHU216HW,2013-01-25 06:58:00,
2013-01-24 23:03:00,40.1,39.1,29.62,ENE,68,0.7,0.9,96,0.00,,,0.22,WUHU216HW,2013-01-25 07:03:00,
2013-01-24 23:08:00,40.1,39.1,29.61,ENE,68,1.3,3.4,96,0.00,,,0.22,WUHU216HW,2013-01-25 07:08:00,
2013-01-24 23:13:00,40.1,39.1,29.61,West,270,0.9,3.4,96,0.00,,,0.22,WUHU216HW,2013-01-25 07:13:00,
2013-01-24 23:18:00,40.3,39.2,29.62,WSW,248,0.0,1.8,96,0.00,,,0.22,WUHU216HW,2013-01-25 07:18:00,
2013-01-24 23:23:00,40.3,39.2,29.62,North,0,2.5,2.5,96,0.00,,,0.22,WUHU216HW,2013-01-25 07:23:00,
2013-01-24 23:28:00,40.5,39.4,29.62,North,0,0.7,2.9,96,0.00,,,0.22,WUHU216HW,2013-01-25 07:28:00,
2013-01-24 23:33:00,40.5,39.4,29.61,North,0,2.0,2.9,96,0.00,,,0.22,WUHU216HW,2013-01-25 07:33:00,
2013-01-24 23:38:00,40.5,39.4,29.62,NNE,23,0.0,2.0,96,0.00,,,0.22,WUHU216HW,2013-01-25 07:38:00,
2013-01-24 23:43:00,40.5,39.4,29.62,NW,315,0.4,2.0,96,0.00,,,0.22,WUHU216HW,2013-01-25 07:43:00,
2013-01-24 23:48:00,40.5,39.4,29.62,NNE,23,2.5,2.5,96,0.00,,,0.22,WUHU216HW,2013-01-25 07:48:00,
2013-01-24 23:53:00,40.5,39.4,29.62,NNW,338,0.7,2.5,96,0.00,,,0.22,WUHU216HW,2013-01-25 07:53:00,
2013-01-24 23:58:00,40.5,39.4,29.62,NNE,23,0.9,2.5,96,0.00,,,0.22,WUHU216HW,2013-01-25 07:58:00,